logo
Rechercher aéroport 
image banner adimage banner adimage banner ad
image banner ad

LZMLYN - Mlynica

Situé à Mlynica, Slovakia

ICAO - , IATA -

Données fournies par Airmate  

Information générale

Coordonnées: N49°6'15" E20°19'16"
Élévation : 2280 feet MSL.
Variation magnétique : 5° East
Voir autres Aéroports à Košice

Données opérationnelles

Special qualification required
Heure actuelle UTC:
Heure actuelle locale:
Météo à : LZTT - Poprad-Tatry ( 7 km )
METAR: LZTT 201200Z 10007KT 050V150 9999 FEW040 SCT050 19/11 Q1015 NOSIG
TAF: TAF LZTT 201115Z 2012/2112 22004KT 9999 SCT040 TEMPO 2012/2018 24015KT 3500 TSRA FEW030 SCT040CB BKN045 TEMPO 2021/2106 1000 BCFG BR BKN002 PROB30 TEMPO 2100/2106 0200 FG BECMG 2107/2109 10008KT
Voir NOTAMs / SUP AIP / TFR affectant cet aéroport [VIEW]
Fréquences de communication: [VIEW]

Pistes:

Identifiant RWYQFULongueur (ft)Largeur (ft)SurfaceLDA (ft)
11R104°144466GRASS1444
29L284°144466GRASS1444
11L104°272666GRASS
29R284°272666GRASS2726

Coordonnées de l'aéroport

Adresse: Mlynica Slovakia

Vue satellite de LZMLYN